Grand Isle, LA

11:56 AM CDT on September 01, 2015 (GMT -0500)
Port Fourchon Terminal | | Change Station
CLOSE
Current Station
Airport
Location: Port Fourchon Terminal,
Elevation: 7 ft
Nearby Weather Stations

Elev 7 ft 29.12 °N, 90.20 °W | Updated 21 minutes ago

Partly Cloudy
Partly Cloudy
86 °F
Feels Like 92 °F
N
9
Wind Variable Wind from ESE

Today
High -- | Low -- °F
--% Chance of Precip.
Yesterday
High -- | Low -- °F
Precip. -- in
6:37 AM 7:21 PM
Waning Gibbous, 88% visible
Pressure 30.09 in
Visibility 10.0 miles
Clouds Clear
Heat Index 92 °F
Dew Point 72 °F
Humidity 62%
Rainfall 0.00 in
Snow Depth Not available.
UV 12 out of 12
Pollen 7.90 out of 12
Air Quality Not available.
Flu Activity Not available.
METAR KXPY 011635Z AUTO 11008KT 10SM CLR 30/22 A3009 RMK A01
Pressure 30.09 in
Visibility 10.0 miles
Clouds Clear
Heat Index 92 °F
Dew Point 72 °F
Humidity 62%
Rainfall 0.00 in
Snow Depth Not available.
UV 12 out of 12
Pollen 7.90 out of 12
Air Quality Not available.
Flu Activity Not available.
METAR KXPY 011635Z AUTO 11008KT 10SM CLR 30/22 A3009 RMK A01

10-Day Weather Forecast

×

Almanac

Astronomy

Sep. 01, 2015 Rise Set
Actual Time
Civil Twilight
Nautical Twilight
Astronomical Twilight
Moon
Length of Visible Light
Length of Day
Tomorrow will be .
, % of the Moon is Illuminated

Today's Extremes

State Highs State Lows

Community

WunderPhotos

Upload Photos

1,851,555 photos uploaded!

WunderBlogs® & News

Nearby

Air Quality

  Air Quality AQ Index Pollutant
Not available.

Snow Depth

Station Depth Elevation

Earthquake Activity

City Distance Mag. Time & Date
Minimum magnitude displayed is 2.5.

Coastal Water Temperatures

Place Temperature

Stations

Nearby Weather Stations

Station Location Temp. Windchill Dew Point Humidity Wind Precip. Elev Updated Type